createdAt,value
2023-05-18T00:01:17.904Z,99.90
2023-05-18T00:03:46.098Z,99.90
2023-05-18T00:06:14.214Z,99.90
2023-05-18T00:08:41.178Z,99.90
2023-05-18T00:11:08.147Z,99.90
2023-05-18T00:13:35.225Z,99.90
2023-05-18T00:16:02.275Z,99.90
2023-05-18T00:18:29.717Z,99.90
2023-05-18T00:20:59.153Z,99.90
2023-05-18T00:23:31.290Z,99.90
2023-05-18T00:25:59.553Z,99.90
2023-05-18T00:28:27.067Z,99.90
2023-05-18T00:30:54.823Z,99.90
2023-05-18T00:33:22.210Z,99.90
2023-05-18T00:35:49.189Z,99.90
2023-05-18T00:38:16.510Z,99.90
2023-05-18T00:40:44.121Z,99.90
2023-05-18T00:43:11.356Z,99.90
2023-05-18T00:45:38.496Z,99.90
2023-05-18T00:48:06.578Z,99.90
2023-05-18T00:50:33.724Z,99.90
2023-05-18T00:53:00.967Z,99.90
2023-05-18T00:55:28.691Z,99.90
2023-05-18T00:57:56.933Z,99.90
2023-05-18T01:00:24.523Z,99.90
2023-05-18T01:02:52.010Z,99.90
2023-05-18T01:05:20.228Z,99.90
2023-05-18T01:07:49.056Z,99.90
2023-05-18T01:10:18.187Z,99.90
2023-05-18T01:12:57.444Z,99.90
2023-05-18T01:15:38.103Z,99.90
2023-05-18T01:18:15.231Z,99.90
2023-05-18T01:21:13.565Z,99.90
2023-05-18T01:24:16.041Z,99.90
2023-05-18T01:26:45.504Z,99.90
2023-05-18T01:29:14.234Z,99.90
2023-05-18T01:31:41.631Z,99.90
2023-05-18T01:34:08.587Z,99.90
2023-05-18T01:36:35.713Z,99.90
2023-05-18T01:39:03.738Z,99.90
2023-05-18T01:41:35.242Z,99.90
2023-05-18T01:44:19.743Z,99.90
2023-05-18T01:47:12.132Z,99.90
2023-05-18T01:49:48.087Z,99.90
2023-05-18T01:52:43.141Z,99.90
2023-05-18T01:55:11.786Z,99.90
2023-05-18T01:57:41.502Z,99.90
2023-05-18T02:00:10.270Z,99.90
2023-05-18T02:02:37.335Z,99.90
2023-05-18T02:05:06.711Z,99.90
2023-05-18T02:07:33.890Z,99.90
2023-05-18T02:10:01.110Z,99.90
2023-05-18T02:12:28.232Z,99.90
2023-05-18T02:14:55.651Z,99.90
2023-05-18T02:17:26.058Z,99.90
2023-05-18T02:19:53.868Z,99.90
2023-05-18T02:22:20.872Z,99.90
2023-05-18T02:24:47.836Z,99.90
2023-05-18T02:27:15.375Z,99.90
2023-05-18T02:29:45.048Z,99.90
2023-05-18T02:32:12.568Z,99.90
2023-05-18T02:34:42.245Z,99.90
2023-05-18T02:39:37.747Z,99.90
2023-05-18T02:42:04.994Z,99.90
2023-05-18T02:44:32.048Z,99.90
2023-05-18T02:46:58.968Z,99.90
2023-05-18T02:49:26.179Z,99.90
2023-05-18T02:51:53.119Z,99.90
2023-05-18T02:54:20.425Z,99.90
2023-05-18T02:56:47.382Z,99.90
2023-05-18T02:59:15.327Z,99.90
2023-05-18T03:01:42.445Z,99.90
2023-05-18T03:04:09.671Z,99.90
2023-05-18T03:06:38.809Z,99.90
2023-05-18T03:09:05.959Z,99.90
2023-05-18T03:11:32.909Z,99.90
2023-05-18T03:13:59.869Z,99.90
2023-05-18T03:16:28.745Z,99.90
2023-05-18T03:18:58.859Z,99.90
2023-05-18T03:21:26.229Z,99.90
2023-05-18T03:23:53.456Z,99.90
2023-05-18T03:26:20.404Z,99.90
2023-05-18T03:28:47.382Z,99.90
2023-05-18T03:31:14.348Z,99.90
2023-05-18T03:33:41.371Z,99.90
2023-05-18T03:36:08.535Z,99.90
2023-05-18T03:38:35.683Z,99.90
2023-05-18T03:41:02.689Z,99.90
2023-05-18T03:43:32.520Z,99.90
2023-05-18T03:45:59.645Z,99.90
2023-05-18T03:48:27.579Z,99.90
2023-05-18T03:50:54.690Z,99.90
2023-05-18T03:53:21.876Z,99.90
2023-05-18T03:55:49.647Z,99.90
2023-05-18T03:58:16.824Z,99.90
2023-05-18T04:00:43.851Z,99.90
2023-05-18T04:03:12.833Z,99.90
2023-05-18T04:05:43.930Z,99.90
2023-05-18T04:08:14.492Z,99.90
2023-05-18T04:10:45.610Z,99.90
2023-05-18T04:13:12.768Z,99.90
2023-05-18T04:15:39.768Z,99.90
2023-05-18T04:18:08.292Z,99.90
2023-05-18T04:20:35.708Z,99.90
2023-05-18T04:23:03.586Z,99.90
2023-05-18T04:25:31.461Z,99.90
2023-05-18T04:28:06.499Z,99.90
2023-05-18T04:30:37.938Z,99.90
2023-05-18T04:33:07.447Z,99.90
2023-05-18T04:35:36.749Z,99.90
2023-05-18T04:38:05.591Z,99.90
2023-05-18T04:40:34.286Z,99.90
2023-05-18T04:43:01.985Z,99.90
2023-05-18T04:45:30.295Z,99.90
2023-05-18T04:47:58.752Z,99.90
2023-05-18T04:50:26.345Z,99.90
2023-05-18T04:52:58.329Z,99.90
2023-05-18T04:55:29.287Z,99.90
2023-05-18T04:57:57.622Z,99.90
2023-05-18T05:00:26.533Z,99.90
2023-05-18T05:02:54.189Z,99.90
2023-05-18T05:05:22.752Z,99.90
2023-05-18T05:07:52.039Z,99.90
2023-05-18T05:10:20.465Z,99.90
2023-05-18T05:12:49.341Z,99.90
2023-05-18T05:15:17.171Z,99.90
2023-05-18T05:17:45.102Z,99.90
2023-05-18T05:20:12.414Z,99.90
2023-05-18T05:22:39.656Z,99.90
2023-05-18T05:25:08.244Z,99.90
2023-05-18T05:27:35.432Z,99.90
2023-05-18T05:30:02.792Z,99.90
2023-05-18T05:32:30.479Z,99.90
2023-05-18T05:34:57.751Z,99.90
2023-05-18T05:37:24.971Z,99.90
2023-05-18T05:39:52.461Z,99.90
2023-05-18T05:42:19.524Z,99.90
2023-05-18T05:44:46.732Z,99.90
2023-05-18T05:47:13.917Z,99.90
2023-05-18T05:49:41.276Z,99.90
2023-05-18T05:52:08.509Z,99.90
2023-05-18T05:54:35.704Z,99.90
2023-05-18T05:57:03.987Z,99.90
2023-05-18T05:59:31.376Z,99.90
2023-05-18T06:01:59.339Z,99.90
2023-05-18T06:04:26.751Z,99.90
2023-05-18T06:06:54.344Z,99.90
2023-05-18T06:09:21.864Z,99.90
2023-05-18T06:11:49.011Z,99.90
2023-05-18T06:14:16.021Z,99.90
2023-05-18T06:16:43.672Z,99.90
2023-05-18T06:19:11.373Z,99.90
2023-05-18T06:21:39.135Z,99.90
2023-05-18T06:24:06.591Z,99.90
2023-05-18T06:26:34.413Z,99.90
2023-05-18T06:29:02.085Z,99.90
2023-05-18T06:31:30.579Z,99.90
2023-05-18T06:33:58.191Z,99.90
2023-05-18T06:36:25.324Z,99.90
2023-05-18T06:38:52.428Z,99.90
2023-05-18T06:41:19.543Z,99.90
2023-05-18T06:43:46.599Z,99.90
2023-05-18T06:46:21.479Z,99.90
2023-05-18T06:48:48.677Z,99.90
2023-05-18T06:51:16.611Z,99.90
2023-05-18T06:53:43.940Z,99.90
2023-05-18T06:56:13.794Z,99.90
2023-05-18T06:58:41.944Z,99.90
2023-05-18T07:01:09.610Z,99.90
2023-05-18T07:03:37.475Z,99.60
2023-05-18T07:06:05.112Z,99.20
2023-05-18T07:08:32.821Z,99.30
2023-05-18T07:11:02.513Z,97.20
2023-05-18T07:13:29.948Z,99.00
2023-05-18T07:15:57.554Z,95.30
2023-05-18T07:18:24.870Z,96.50
2023-05-18T07:20:51.948Z,94.90
2023-05-18T07:23:19.065Z,95.30
2023-05-18T07:25:46.331Z,93.40
2023-05-18T07:28:13.301Z,93.40
2023-05-18T07:30:40.560Z,91.20
2023-05-18T07:33:07.555Z,90.60
2023-05-18T07:35:34.780Z,90.80
2023-05-18T07:38:01.818Z,82.40
2023-05-18T07:40:28.839Z,81.50
2023-05-18T07:42:56.124Z,89.10
2023-05-18T07:45:24.079Z,85.00
2023-05-18T07:47:51.944Z,82.40
2023-05-18T07:50:19.251Z,82.80
2023-05-18T07:52:46.720Z,79.00
2023-05-18T07:55:13.821Z,82.90
2023-05-18T07:57:40.750Z,85.80
2023-05-18T08:00:09.615Z,78.30
2023-05-18T08:02:36.833Z,74.60
2023-05-18T08:05:04.138Z,69.90
2023-05-18T08:07:33.000Z,71.60
2023-05-18T08:09:59.960Z,68.30
2023-05-18T08:12:27.014Z,62.50
2023-05-18T08:14:53.931Z,63.10
2023-05-18T08:17:21.194Z,62.90
2023-05-18T08:19:48.805Z,61.30
2023-05-18T08:22:15.837Z,68.00
2023-05-18T08:24:42.923Z,69.70
2023-05-18T08:27:11.311Z,61.40
2023-05-18T08:29:38.548Z,53.80
2023-05-18T08:32:08.878Z,53.20
2023-05-18T08:34:36.081Z,53.30
2023-05-18T08:37:04.176Z,50.80
2023-05-18T08:39:32.421Z,47.70
2023-05-18T08:42:16.892Z,57.20
2023-05-18T08:44:57.171Z,49.70
2023-05-18T08:47:26.700Z,43.20
2023-05-18T08:49:56.661Z,44.30
2023-05-18T08:52:28.748Z,44.60
2023-05-18T08:55:00.294Z,56.30
2023-05-18T08:57:29.736Z,43.40
2023-05-18T08:59:58.139Z,42.30
2023-05-18T09:02:25.641Z,40.10
2023-05-18T09:04:54.482Z,41.10
2023-05-18T09:07:23.406Z,44.30
2023-05-18T09:09:50.621Z,40.60
2023-05-18T09:12:19.203Z,45.50
2023-05-18T09:14:46.375Z,40.90
2023-05-18T09:17:13.458Z,41.20
2023-05-18T09:19:41.797Z,41.80
2023-05-18T09:22:08.790Z,40.70
2023-05-18T09:24:38.102Z,37.30
2023-05-18T09:27:06.529Z,33.70
2023-05-18T09:29:34.027Z,37.00
2023-05-18T09:32:08.574Z,41.40
2023-05-18T09:34:42.881Z,40.10
2023-05-18T09:37:10.227Z,38.00
2023-05-18T09:39:37.380Z,29.90
2023-05-18T09:42:04.910Z,36.10
2023-05-18T09:44:35.625Z,35.40
2023-05-18T09:47:03.990Z,32.90
2023-05-18T09:49:31.488Z,29.80
2023-05-18T09:52:01.227Z,32.70
2023-05-18T09:54:28.729Z,37.90
2023-05-18T09:57:09.432Z,35.00
2023-05-18T09:59:38.047Z,34.40
2023-05-18T10:02:06.148Z,28.80
2023-05-18T10:04:43.819Z,30.60
2023-05-18T10:07:16.042Z,33.50
2023-05-18T10:09:44.809Z,28.50
2023-05-18T10:12:16.781Z,26.10
2023-05-18T10:14:45.074Z,26.70
2023-05-18T10:17:16.210Z,29.70
2023-05-18T10:19:45.511Z,26.50
2023-05-18T10:22:16.622Z,22.40
2023-05-18T10:24:46.476Z,24.40
2023-05-18T10:27:17.913Z,24.20
2023-05-18T10:29:46.481Z,24.20
2023-05-18T10:32:15.414Z,31.50
2023-05-18T10:34:44.861Z,22.70
2023-05-18T10:37:13.807Z,24.80
2023-05-18T10:39:45.289Z,24.80
2023-05-18T10:42:14.492Z,25.00
2023-05-18T10:44:42.124Z,24.80
2023-05-18T10:47:11.630Z,23.20
2023-05-18T10:49:40.557Z,21.80
2023-05-18T10:52:09.034Z,21.40
2023-05-18T10:54:37.587Z,25.40
2023-05-18T10:57:05.080Z,24.30
2023-05-18T10:59:33.375Z,22.80
2023-05-18T11:02:02.110Z,21.30
2023-05-18T11:04:32.112Z,22.30
2023-05-18T11:07:02.704Z,21.10
2023-05-18T11:09:30.386Z,18.80
2023-05-18T11:11:58.577Z,20.20
2023-05-18T11:14:30.505Z,20.00
2023-05-18T11:17:19.765Z,20.60
2023-05-18T11:20:12.974Z,23.20
2023-05-18T11:22:51.250Z,20.50
2023-05-18T11:25:24.492Z,19.00
2023-05-18T11:27:57.063Z,20.60
2023-05-18T11:30:29.277Z,17.10
2023-05-18T11:33:12.693Z,18.10
2023-05-18T11:35:58.683Z,17.10
2023-05-18T11:38:49.633Z,16.40
2023-05-18T11:41:34.934Z,15.30
2023-05-18T11:44:15.159Z,16.50
2023-05-18T11:46:58.343Z,17.70
2023-05-18T11:49:27.442Z,13.80
2023-05-18T11:52:02.523Z,15.60
2023-05-18T11:54:54.274Z,17.00
2023-05-18T11:57:26.557Z,15.60
2023-05-18T11:59:58.898Z,14.70
2023-05-18T12:02:32.627Z,15.30
2023-05-18T12:05:01.266Z,11.10
2023-05-18T12:07:35.338Z,12.70
2023-05-18T12:10:17.182Z,12.20
2023-05-18T12:12:47.602Z,12.50
2023-05-18T12:15:17.017Z,15.60
2023-05-18T12:17:46.828Z,16.60
2023-05-18T12:20:22.033Z,16.20
2023-05-18T12:22:53.173Z,15.30
2023-05-18T12:25:22.064Z,10.10
2023-05-18T12:27:50.150Z,13.80
2023-05-18T12:30:19.703Z,12.50
2023-05-18T12:32:49.514Z,10.30
2023-05-18T12:35:16.895Z,11.10
2023-05-18T12:37:47.853Z,9.80
2023-05-18T12:40:16.649Z,12.20
2023-05-18T12:42:54.216Z,13.60
2023-05-18T12:45:27.146Z,12.80
2023-05-18T12:47:55.791Z,13.00
2023-05-18T12:50:26.988Z,14.30
2023-05-18T12:52:56.627Z,15.00
2023-05-18T12:55:25.405Z,12.40
2023-05-18T12:58:03.848Z,12.90
2023-05-18T13:00:38.031Z,10.70
2023-05-18T13:03:17.038Z,11.10
2023-05-18T13:05:46.106Z,12.20
2023-05-18T13:08:21.990Z,7.40
2023-05-18T13:10:58.375Z,10.80
2023-05-18T13:13:28.841Z,10.30
2023-05-18T13:15:56.163Z,8.50
2023-05-18T13:18:23.200Z,12.40
2023-05-18T13:20:55.251Z,11.50
2023-05-18T13:23:24.786Z,10.50
2023-05-18T13:25:52.112Z,12.40
2023-05-18T13:28:20.984Z,11.10
2023-05-18T13:30:49.144Z,9.30
2023-05-18T13:33:18.051Z,9.00
2023-05-18T13:35:45.887Z,8.10
2023-05-18T13:38:14.018Z,10.60
2023-05-18T13:40:42.548Z,8.20
2023-05-18T13:43:11.997Z,8.90
2023-05-18T13:45:41.203Z,9.10
2023-05-18T13:48:10.718Z,9.70
2023-05-18T13:50:39.059Z,9.90
2023-05-18T13:53:06.800Z,8.00
2023-05-18T13:55:35.630Z,9.20
2023-05-18T13:58:03.153Z,7.60
2023-05-18T14:00:33.250Z,6.10
2023-05-18T14:03:01.514Z,9.40
2023-05-18T14:05:29.094Z,5.80
2023-05-18T14:07:57.022Z,8.00
2023-05-18T14:10:24.110Z,8.80
2023-05-18T14:12:51.146Z,8.20
2023-05-18T14:15:18.190Z,5.50
2023-05-18T14:17:46.044Z,7.00
2023-05-18T14:20:13.244Z,6.90
2023-05-18T14:22:40.820Z,8.00
2023-05-18T14:25:08.352Z,6.40
2023-05-18T14:27:36.342Z,8.30
2023-05-18T14:30:03.691Z,9.20
2023-05-18T14:32:30.740Z,8.20
2023-05-18T14:34:58.763Z,6.60
2023-05-18T14:37:26.159Z,9.00
2023-05-18T14:39:53.773Z,7.10
2023-05-18T14:42:21.064Z,6.20
2023-05-18T14:44:47.895Z,7.80
2023-05-18T14:47:14.580Z,6.70
2023-05-18T14:49:41.382Z,8.00
2023-05-18T14:52:08.110Z,8.70
2023-05-18T14:54:35.084Z,8.90
2023-05-18T14:57:02.433Z,10.00
2023-05-18T14:59:29.188Z,9.00
2023-05-18T15:01:56.057Z,10.70
2023-05-18T15:04:23.645Z,10.50
2023-05-18T15:06:50.781Z,10.80
2023-05-18T15:09:17.513Z,10.70
2023-05-18T15:11:44.463Z,11.00
2023-05-18T15:14:11.707Z,9.70
2023-05-18T15:16:38.953Z,9.80
2023-05-18T15:19:05.920Z,8.60
2023-05-18T15:21:33.084Z,11.50
2023-05-18T15:24:00.448Z,11.70
2023-05-18T15:26:28.273Z,10.30
2023-05-18T15:28:56.500Z,9.70
2023-05-18T15:31:24.064Z,10.00
2023-05-18T15:33:51.302Z,10.40
2023-05-18T15:36:18.566Z,9.40
2023-05-18T15:38:45.579Z,10.20
2023-05-18T15:41:12.769Z,11.80
2023-05-18T15:43:40.766Z,11.60
2023-05-18T15:46:08.089Z,11.30
2023-05-18T15:48:35.626Z,10.20
2023-05-18T15:51:02.552Z,10.60
2023-05-18T15:53:29.588Z,11.10
2023-05-18T15:55:59.287Z,11.40
2023-05-18T15:58:27.353Z,12.90
2023-05-18T16:00:54.391Z,12.90
2023-05-18T16:03:21.688Z,12.60
2023-05-18T16:05:48.887Z,11.60
2023-05-18T16:08:16.017Z,13.20
2023-05-18T16:10:42.922Z,14.80
2023-05-18T16:13:11.471Z,14.40
2023-05-18T16:15:39.056Z,14.50
2023-05-18T16:18:06.524Z,13.30
2023-05-18T16:20:33.747Z,13.90
2023-05-18T16:23:01.400Z,13.70
2023-05-18T16:25:29.105Z,12.80
2023-05-18T16:27:57.330Z,13.00
2023-05-18T16:30:24.583Z,13.40
2023-05-18T16:32:51.838Z,12.40
2023-05-18T16:35:18.904Z,13.70
2023-05-18T16:37:45.920Z,14.50
2023-05-18T16:40:13.195Z,13.60
2023-05-18T16:42:40.637Z,14.20
2023-05-18T16:45:07.851Z,12.90
2023-05-18T16:47:34.834Z,13.20
2023-05-18T16:50:01.896Z,14.80
2023-05-18T16:52:29.218Z,15.10
2023-05-18T16:54:56.585Z,13.60
2023-05-18T16:57:27.297Z,15.20
2023-05-18T16:59:54.475Z,13.70
2023-05-18T17:02:21.692Z,13.60
2023-05-18T17:04:50.134Z,13.80
2023-05-18T17:07:17.351Z,13.30
2023-05-18T17:09:44.588Z,14.50
2023-05-18T17:12:12.550Z,12.50
2023-05-18T17:14:39.967Z,12.60
2023-05-18T17:17:07.851Z,12.00
2023-05-18T17:19:35.424Z,11.20
2023-05-18T17:22:03.594Z,8.90
2023-05-18T17:24:31.318Z,7.70
2023-05-18T17:26:58.538Z,6.60
2023-05-18T17:29:25.616Z,4.50
2023-05-18T17:31:52.735Z,3.50
2023-05-18T17:34:20.074Z,2.90
2023-05-18T17:36:47.079Z,2.80
2023-05-18T17:39:16.801Z,6.10
2023-05-18T17:41:44.402Z,7.90
2023-05-18T17:44:14.580Z,10.20
2023-05-18T17:46:41.954Z,11.40
2023-05-18T17:49:09.156Z,11.50
2023-05-18T17:51:36.370Z,12.90
2023-05-18T17:54:04.121Z,14.20
2023-05-18T17:56:31.826Z,15.20
2023-05-18T17:58:59.255Z,16.70
2023-05-18T18:01:27.410Z,16.80
2023-05-18T18:03:58.194Z,17.10
2023-05-18T18:06:25.530Z,18.10
2023-05-18T18:08:54.113Z,17.40
2023-05-18T18:11:22.011Z,17.90
2023-05-18T18:13:49.755Z,19.80
2023-05-18T18:16:17.812Z,19.00
2023-05-18T18:18:45.271Z,21.40
2023-05-18T18:21:12.612Z,21.20
2023-05-18T18:23:40.312Z,22.40
2023-05-18T18:26:08.352Z,23.30
2023-05-18T18:28:35.546Z,22.40
2023-05-18T18:31:03.545Z,22.10
2023-05-18T18:33:32.599Z,23.40
2023-05-18T18:36:00.293Z,24.70
2023-05-18T18:38:28.534Z,25.80
2023-05-18T18:41:01.357Z,26.70
2023-05-18T18:43:28.790Z,26.80
2023-05-18T18:45:57.266Z,29.40
2023-05-18T18:48:24.770Z,29.90
2023-05-18T18:50:51.858Z,31.30
2023-05-18T18:53:18.768Z,34.20
2023-05-18T18:55:45.775Z,34.10
2023-05-18T18:58:12.739Z,34.90
2023-05-18T19:00:40.908Z,37.20
2023-05-18T19:03:10.590Z,39.50
2023-05-18T19:05:38.796Z,40.40
2023-05-18T19:08:06.212Z,41.50
2023-05-18T19:10:34.291Z,42.60
2023-05-18T19:13:05.777Z,47.00
2023-05-18T19:15:36.707Z,52.40
2023-05-18T19:18:04.074Z,55.40
2023-05-18T19:20:31.280Z,61.10
2023-05-18T19:22:58.295Z,64.80
2023-05-18T19:25:26.589Z,64.90
2023-05-18T19:27:54.034Z,69.90
2023-05-18T19:30:25.186Z,73.60
2023-05-18T19:32:53.311Z,75.60
2023-05-18T19:35:21.651Z,79.00
2023-05-18T19:37:48.644Z,86.10
2023-05-18T19:40:16.411Z,86.60
2023-05-18T19:42:43.779Z,87.00
2023-05-18T19:45:11.128Z,90.10
2023-05-18T19:47:38.417Z,90.40
2023-05-18T19:50:06.525Z,90.40
2023-05-18T19:52:33.874Z,92.90
2023-05-18T19:55:01.997Z,94.60
2023-05-18T19:57:29.267Z,95.10
2023-05-18T19:59:56.203Z,95.60
2023-05-18T20:02:23.092Z,95.80
2023-05-18T20:04:50.875Z,96.20
2023-05-18T20:07:18.123Z,96.50
2023-05-18T20:09:45.156Z,97.10
2023-05-18T20:12:12.200Z,97.90
2023-05-18T20:14:39.268Z,98.10
2023-05-18T20:17:06.905Z,98.00
2023-05-18T20:19:33.819Z,99.00
2023-05-18T20:22:00.883Z,99.50
2023-05-18T20:24:28.458Z,99.90
2023-05-18T20:26:55.755Z,99.90
2023-05-18T20:29:22.644Z,99.90
2023-05-18T20:31:50.639Z,99.90
2023-05-18T20:34:17.678Z,99.90
2023-05-18T20:36:44.614Z,99.90
2023-05-18T20:39:11.773Z,99.90
2023-05-18T20:41:40.361Z,99.90
2023-05-18T20:44:10.576Z,99.90
2023-05-18T20:46:38.478Z,99.90
2023-05-18T20:49:06.098Z,99.90
2023-05-18T20:51:33.001Z,99.90
2023-05-18T20:54:00.114Z,99.90
2023-05-18T20:56:29.550Z,99.90
2023-05-18T20:58:56.980Z,99.90
2023-05-18T21:01:24.004Z,99.90
2023-05-18T21:03:51.107Z,99.90
2023-05-18T21:06:18.117Z,99.90
2023-05-18T21:08:45.360Z,99.90
2023-05-18T21:11:12.357Z,99.90
2023-05-18T21:13:39.275Z,99.90
2023-05-18T21:16:08.346Z,99.90
2023-05-18T21:18:36.127Z,99.90
2023-05-18T21:21:03.584Z,99.90
2023-05-18T21:23:31.152Z,99.90
2023-05-18T21:25:58.155Z,99.90
2023-05-18T21:28:25.152Z,99.90
2023-05-18T21:30:52.900Z,99.90
2023-05-18T21:33:21.421Z,99.90
2023-05-18T21:35:48.481Z,99.90
2023-05-18T21:38:16.727Z,99.90
2023-05-18T21:40:44.171Z,99.90
2023-05-18T21:43:12.707Z,99.90
2023-05-18T21:45:40.079Z,99.90
2023-05-18T21:48:07.569Z,99.90
2023-05-18T21:50:35.329Z,99.90
2023-05-18T21:53:03.330Z,99.90
2023-05-18T21:55:33.856Z,99.90
2023-05-18T21:58:00.941Z,99.90
2023-05-18T22:00:28.607Z,99.90
2023-05-18T22:02:55.726Z,99.90
2023-05-18T22:05:22.676Z,99.90
2023-05-18T22:07:49.825Z,99.90
2023-05-18T22:10:18.562Z,99.90
2023-05-18T22:12:45.863Z,99.90
2023-05-18T22:15:12.853Z,99.90
2023-05-18T22:17:40.321Z,99.90
2023-05-18T22:20:11.699Z,99.90
2023-05-18T22:22:40.526Z,99.90
2023-05-18T22:25:08.075Z,99.90
2023-05-18T22:27:36.968Z,99.90
2023-05-18T22:30:06.558Z,99.90
2023-05-18T22:32:34.074Z,99.90
2023-05-18T22:35:02.086Z,99.90
2023-05-18T22:37:28.973Z,99.90
2023-05-18T22:39:56.226Z,99.90
2023-05-18T22:42:23.249Z,99.90
2023-05-18T22:44:51.630Z,99.90
2023-05-18T22:47:21.483Z,99.90
2023-05-18T22:49:49.240Z,99.90
2023-05-18T22:52:18.703Z,99.90
2023-05-18T22:54:46.001Z,99.90
2023-05-18T22:57:13.360Z,99.90
2023-05-18T22:59:40.362Z,99.90
2023-05-18T23:02:07.571Z,99.90
2023-05-18T23:04:35.457Z,99.90
2023-05-18T23:07:04.090Z,99.90
2023-05-18T23:09:31.415Z,99.90
2023-05-18T23:12:01.139Z,99.90
2023-05-18T23:14:32.844Z,99.90
2023-05-18T23:17:00.524Z,99.90
2023-05-18T23:19:29.383Z,99.90
2023-05-18T23:21:56.650Z,99.90
2023-05-18T23:24:24.090Z,99.90
2023-05-18T23:26:51.171Z,99.90
2023-05-18T23:29:18.192Z,99.90
2023-05-18T23:31:45.160Z,99.90
2023-05-18T23:34:12.462Z,99.90
2023-05-18T23:36:42.580Z,99.90
2023-05-18T23:39:09.977Z,99.90
2023-05-18T23:41:37.887Z,99.90
2023-05-18T23:44:05.230Z,99.90
2023-05-18T23:46:34.273Z,99.90
2023-05-18T23:49:01.483Z,99.90
2023-05-18T23:51:33.488Z,99.90
2023-05-18T23:54:02.060Z,99.90
2023-05-18T23:56:29.391Z,99.90
2023-05-18T23:58:56.672Z,99.90
